createdAt,value
2018-12-21T00:00:50.279Z,30.47
2018-12-21T00:03:17.865Z,30.43
2018-12-21T00:05:45.517Z,33.03
2018-12-21T00:08:13.319Z,31.53
2018-12-21T00:10:41.069Z,29.13
2018-12-21T00:13:09.855Z,29.20
2018-12-21T00:15:37.642Z,35.23
2018-12-21T00:18:05.443Z,29.20
2018-12-21T00:20:33.150Z,34.53
2018-12-21T00:23:00.817Z,29.73
2018-12-21T00:25:28.391Z,33.70
2018-12-21T00:27:56.037Z,47.03
2018-12-21T00:30:23.096Z,41.70
2018-12-21T00:32:56.806Z,26.53
2018-12-21T00:35:30.086Z,30.70
2018-12-21T00:38:03.202Z,24.70
2018-12-21T00:40:36.553Z,28.20
2018-12-21T00:43:09.425Z,31.07
2018-12-21T00:45:37.485Z,33.00
2018-12-21T00:48:05.059Z,32.10
2018-12-21T00:50:33.445Z,34.63
2018-12-21T00:53:01.127Z,30.67
2018-12-21T00:55:30.123Z,24.50
2018-12-21T00:57:57.782Z,28.30
2018-12-21T01:00:25.764Z,32.90
2018-12-21T01:02:54.194Z,42.47
2018-12-21T01:05:21.861Z,34.13
2018-12-21T01:07:49.469Z,29.40
2018-12-21T01:10:17.195Z,28.30
2018-12-21T01:12:44.848Z,33.13
2018-12-21T01:15:12.614Z,29.73
2018-12-21T01:17:40.365Z,26.13
2018-12-21T01:20:08.445Z,28.13
2018-12-21T01:22:37.778Z,30.23
2018-12-21T01:25:05.570Z,27.10
2018-12-21T01:27:33.152Z,31.17
2018-12-21T01:30:00.794Z,27.47
2018-12-21T01:32:28.417Z,25.23
2018-12-21T01:34:56.083Z,31.33
2018-12-21T01:37:23.818Z,32.27
2018-12-21T01:39:51.422Z,39.10
2018-12-21T01:42:19.329Z,40.03
2018-12-21T01:44:46.979Z,39.97
2018-12-21T01:47:14.583Z,43.53
2018-12-21T01:49:42.230Z,57.17
2018-12-21T01:52:09.902Z,62.07
2018-12-21T01:54:37.473Z,40.17
2018-12-21T01:57:06.195Z,46.63
2018-12-21T01:59:33.816Z,58.10
2018-12-21T02:02:01.520Z,51.73
2018-12-21T02:04:29.163Z,81.03
2018-12-21T02:06:57.675Z,49.30
2018-12-21T02:09:25.338Z,71.60
2018-12-21T02:11:52.912Z,51.03
2018-12-21T02:14:21.150Z,54.47
2018-12-21T02:16:49.617Z,44.00
2018-12-21T02:19:17.264Z,38.37
2018-12-21T02:21:55.569Z,39.17
2018-12-21T02:24:16.849Z,48.40
2018-12-21T02:26:44.498Z,51.27
2018-12-21T02:29:13.224Z,59.03
2018-12-21T02:31:40.849Z,53.70
2018-12-21T02:34:08.528Z,48.30
2018-12-21T02:36:36.108Z,56.20
2018-12-21T02:39:05.961Z,55.17
2018-12-21T02:41:33.538Z,59.60
2018-12-21T02:44:01.925Z,53.80
2018-12-21T02:46:29.575Z,80.77
2018-12-21T02:48:57.182Z,77.83
2018-12-21T02:51:25.447Z,57.70
2018-12-21T02:53:53.038Z,56.67
2018-12-21T02:56:21.279Z,90.30
2018-12-21T02:58:49.594Z,57.27
2018-12-21T03:01:17.178Z,65.63
2018-12-21T03:03:44.836Z,59.77
2018-12-21T03:06:13.907Z,82.73
2018-12-21T03:08:41.496Z,63.80
2018-12-21T03:11:09.389Z,177.73
2018-12-21T03:13:37.025Z,86.80
2018-12-21T03:16:04.682Z,90.53
2018-12-21T03:18:32.272Z,76.87
2018-12-21T03:21:00.515Z,158.53
2018-12-21T03:23:29.297Z,69.03
2018-12-21T03:25:56.959Z,101.97
2018-12-21T03:28:25.537Z,141.57
2018-12-21T03:30:55.446Z,126.90
2018-12-21T03:33:23.121Z,52.30
2018-12-21T03:35:51.934Z,70.77
2018-12-21T03:38:19.581Z,98.23
2018-12-21T03:40:49.057Z,66.90
2018-12-21T03:43:16.661Z,78.83
2018-12-21T03:45:45.228Z,123.87
2018-12-21T03:48:12.880Z,156.60
2018-12-21T03:50:40.579Z,131.07
2018-12-21T03:53:08.224Z,164.17
2018-12-21T03:55:35.802Z,229.33
2018-12-21T03:58:03.429Z,175.00
2018-12-21T04:00:31.275Z,147.47
2018-12-21T04:02:59.033Z,162.03
2018-12-21T04:05:26.674Z,76.53
2018-12-21T04:07:55.012Z,106.97
2018-12-21T04:10:22.665Z,120.53
2018-12-21T04:12:50.333Z,124.30
2018-12-21T04:15:18.579Z,48.90
2018-12-21T04:17:46.248Z,121.33
2018-12-21T04:20:15.067Z,139.90
2018-12-21T04:22:42.989Z,63.73
2018-12-21T04:25:10.609Z,49.70
2018-12-21T04:27:38.326Z,88.10
2018-12-21T04:30:08.017Z,52.40
2018-12-21T04:32:35.654Z,98.57
2018-12-21T04:35:03.509Z,82.17
2018-12-21T04:37:31.141Z,63.03
2018-12-21T04:40:00.087Z,80.00
2018-12-21T04:42:28.944Z,48.67
2018-12-21T04:44:59.768Z,44.90
2018-12-21T04:47:27.444Z,47.53
2018-12-21T04:49:55.067Z,48.17
2018-12-21T04:52:22.770Z,46.93
2018-12-21T04:54:50.439Z,53.67
2018-12-21T04:57:18.009Z,58.17
2018-12-21T04:59:45.719Z,74.00
2018-12-21T05:02:14.091Z,48.43
2018-12-21T05:04:42.473Z,68.07
2018-12-21T05:07:12.537Z,47.20
2018-12-21T05:09:39.825Z,46.57
2018-12-21T05:12:07.525Z,48.47
2018-12-21T05:14:35.132Z,70.03
2018-12-21T05:17:04.999Z,39.80
2018-12-21T05:19:32.688Z,56.70
2018-12-21T05:22:00.321Z,86.07
2018-12-21T05:24:28.186Z,35.43
2018-12-21T05:26:56.789Z,66.60
2018-12-21T05:29:24.446Z,65.57
2018-12-21T05:31:52.984Z,71.40
2018-12-21T05:34:20.584Z,63.73
2018-12-21T05:36:48.217Z,44.67
2018-12-21T05:39:15.923Z,56.73
2018-12-21T05:41:44.695Z,75.13
2018-12-21T05:44:13.365Z,43.13
2018-12-21T05:46:41.121Z,42.03
2018-12-21T05:49:08.736Z,52.87
2018-12-21T05:51:38.437Z,38.87
2018-12-21T05:54:06.207Z,52.30
2018-12-21T05:56:33.853Z,41.57
2018-12-21T05:59:02.228Z,38.90
2018-12-21T06:01:29.906Z,34.47
2018-12-21T06:03:57.656Z,31.40
2018-12-21T06:06:25.969Z,35.83
2018-12-21T06:08:54.433Z,34.73
2018-12-21T06:11:22.127Z,38.33
2018-12-21T06:13:49.780Z,42.17
2018-12-21T06:16:17.430Z,40.60
2018-12-21T06:18:45.098Z,38.97
2018-12-21T06:21:13.632Z,40.43
2018-12-21T06:23:42.219Z,23.73
2018-12-21T06:26:13.427Z,30.43
2018-12-21T06:28:41.148Z,28.77
2018-12-21T06:31:08.846Z,23.67
2018-12-21T06:33:37.621Z,29.03
2018-12-21T06:36:05.226Z,23.70
2018-12-21T06:38:32.869Z,26.10
2018-12-21T06:41:00.474Z,24.57
2018-12-21T06:43:28.120Z,22.53
2018-12-21T06:45:57.757Z,25.00
2018-12-21T06:48:25.898Z,24.83
2018-12-21T06:50:53.659Z,22.83
2018-12-21T06:53:21.418Z,28.93
2018-12-21T06:55:49.023Z,36.03
2018-12-21T06:58:16.608Z,31.93
2018-12-21T07:00:45.311Z,28.27
2018-12-21T07:03:17.011Z,27.70
2018-12-21T07:05:42.595Z,23.20
2018-12-21T07:08:10.239Z,38.63
2018-12-21T07:10:39.676Z,23.63
2018-12-21T07:13:07.254Z,27.43
2018-12-21T07:15:35.810Z,24.97
2018-12-21T07:18:03.461Z,28.23
2018-12-21T07:20:32.207Z,36.47
2018-12-21T07:23:00.613Z,25.80
2018-12-21T07:25:29.812Z,27.53
2018-12-21T07:27:57.531Z,23.83
2018-12-21T07:30:25.229Z,31.00
2018-12-21T07:32:54.222Z,27.60
2018-12-21T07:35:21.912Z,26.53
2018-12-21T07:37:49.530Z,29.10
2018-12-21T07:40:17.264Z,23.57
2018-12-21T07:42:45.818Z,22.07
2018-12-21T07:45:13.554Z,26.10
2018-12-21T07:47:41.210Z,24.87
2018-12-21T07:50:10.050Z,29.90
2018-12-21T07:52:37.670Z,18.17
2018-12-21T07:55:06.503Z,21.27
2018-12-21T07:57:35.143Z,25.47
2018-12-21T08:00:02.807Z,24.87
2018-12-21T08:02:31.204Z,19.70
2018-12-21T08:04:58.874Z,21.17
2018-12-21T08:07:26.454Z,21.97
2018-12-21T08:09:54.227Z,25.97
2018-12-21T08:12:21.939Z,27.23
2018-12-21T08:14:49.518Z,25.63
2018-12-21T08:17:17.206Z,31.23
2018-12-21T08:19:44.874Z,23.33
2018-12-21T08:22:12.629Z,26.00
2018-12-21T08:24:40.241Z,29.13
2018-12-21T08:27:07.937Z,21.87
2018-12-21T08:29:35.778Z,25.33
2018-12-21T08:32:03.701Z,21.43
2018-12-21T08:34:31.424Z,18.73
2018-12-21T08:36:59.330Z,19.80
2018-12-21T08:39:27.798Z,33.70
2018-12-21T08:41:55.515Z,26.13
2018-12-21T08:44:24.180Z,29.60
2018-12-21T08:46:51.925Z,32.73
2018-12-21T08:49:19.596Z,36.13
2018-12-21T08:51:47.255Z,37.83
2018-12-21T08:54:15.001Z,33.47
2018-12-21T08:56:42.800Z,35.20
2018-12-21T08:59:10.549Z,29.90
2018-12-21T09:01:39.166Z,29.57
2018-12-21T09:04:06.801Z,36.20
2018-12-21T09:06:34.474Z,30.23
2018-12-21T09:09:02.299Z,27.27
2018-12-21T09:11:30.125Z,24.50
2018-12-21T09:13:57.743Z,34.47
2018-12-21T09:16:25.432Z,26.63
2018-12-21T09:18:53.120Z,28.77
2018-12-21T09:21:20.750Z,28.43
2018-12-21T09:23:48.425Z,25.93
2018-12-21T09:26:16.065Z,30.90
2018-12-21T09:28:43.728Z,32.93
2018-12-21T09:31:11.346Z,30.83
2018-12-21T09:33:39.750Z,28.03
2018-12-21T09:36:07.489Z,29.93
2018-12-21T09:38:35.562Z,28.93
2018-12-21T09:41:03.234Z,33.07
2018-12-21T09:43:30.889Z,36.17
2018-12-21T09:45:58.552Z,26.40
2018-12-21T09:48:26.134Z,26.23
2018-12-21T09:50:53.819Z,29.70
2018-12-21T09:53:21.410Z,37.27
2018-12-21T09:55:49.003Z,23.90
2018-12-21T09:58:16.746Z,36.33
2018-12-21T10:00:44.341Z,45.23
2018-12-21T10:03:12.037Z,31.70
2018-12-21T10:05:39.636Z,33.37
2018-12-21T10:08:07.623Z,22.73
2018-12-21T10:10:35.251Z,37.20
2018-12-21T10:13:02.907Z,29.63
2018-12-21T10:15:30.735Z,45.33
2018-12-21T10:17:58.488Z,37.53
2018-12-21T10:20:26.227Z,27.50
2018-12-21T10:22:53.862Z,33.37
2018-12-21T10:25:21.530Z,38.00
2018-12-21T10:27:49.181Z,31.00
2018-12-21T10:30:16.904Z,28.97
2018-12-21T10:32:44.599Z,45.60
2018-12-21T10:35:12.219Z,30.83
2018-12-21T10:37:39.898Z,36.77
2018-12-21T10:40:07.632Z,29.40
2018-12-21T10:42:35.487Z,40.50
2018-12-21T10:45:04.286Z,26.80
2018-12-21T10:47:32.188Z,29.50
2018-12-21T10:49:59.798Z,30.77
2018-12-21T10:52:27.506Z,27.43
2018-12-21T10:54:55.209Z,35.27
2018-12-21T10:57:22.821Z,27.67
2018-12-21T10:59:50.498Z,36.00
2018-12-21T11:02:18.281Z,49.13
2018-12-21T11:04:45.886Z,29.77
2018-12-21T11:07:13.574Z,29.83
2018-12-21T11:09:41.248Z,21.97
2018-12-21T11:12:08.918Z,34.47
2018-12-21T11:14:36.907Z,33.07
2018-12-21T11:17:04.595Z,48.23
2018-12-21T11:19:33.213Z,27.10
2018-12-21T11:22:00.863Z,34.33
2018-12-21T11:24:35.454Z,35.80
2018-12-21T11:27:00.128Z,30.90
2018-12-21T11:29:27.834Z,39.03
2018-12-21T11:31:56.658Z,58.03
2018-12-21T11:34:24.389Z,36.30
2018-12-21T11:36:52.146Z,70.40
2018-12-21T11:39:19.943Z,44.93
2018-12-21T11:41:47.703Z,45.60
2018-12-21T11:44:15.431Z,29.57
2018-12-21T11:46:43.103Z,38.47
2018-12-21T11:49:10.830Z,26.70
2018-12-21T11:51:38.660Z,31.93
2018-12-21T11:54:07.710Z,29.03
2018-12-21T11:56:35.543Z,36.73
2018-12-21T11:59:03.391Z,46.33
2018-12-21T12:01:31.554Z,39.63
2018-12-21T12:04:00.914Z,37.33
2018-12-21T12:06:28.607Z,64.27
2018-12-21T12:08:56.300Z,32.77
2018-12-21T12:11:24.112Z,26.10
2018-12-21T12:13:51.862Z,25.97
2018-12-21T12:16:19.590Z,27.63
2018-12-21T12:18:47.368Z,30.47
2018-12-21T12:21:14.972Z,34.90
2018-12-21T12:23:43.598Z,98.37
2018-12-21T12:26:12.431Z,50.03
2018-12-21T12:28:40.160Z,38.30
2018-12-21T12:31:07.889Z,48.87
2018-12-21T12:33:36.090Z,39.60
2018-12-21T12:36:03.961Z,37.43
2018-12-21T12:38:32.065Z,24.80
2018-12-21T12:41:06.555Z,27.20
2018-12-21T12:43:29.582Z,30.60
2018-12-21T12:45:57.391Z,29.27
2018-12-21T12:48:25.197Z,104.03
2018-12-21T12:50:52.848Z,39.57
2018-12-21T12:53:20.634Z,35.70
2018-12-21T12:55:49.411Z,27.70
2018-12-21T12:58:17.105Z,25.10
2018-12-21T13:03:21.539Z,63.90
2018-12-21T13:05:51.325Z,32.70
2018-12-21T13:08:20.346Z,33.60
2018-12-21T13:10:48.238Z,37.97
2018-12-21T13:13:16.971Z,41.10
2018-12-21T13:15:44.789Z,33.47
2018-12-21T13:18:13.566Z,26.30
2018-12-21T13:20:41.489Z,28.83
2018-12-21T13:23:11.521Z,31.40
2018-12-21T13:25:39.262Z,30.07
2018-12-21T13:28:07.052Z,31.20
2018-12-21T13:30:34.704Z,45.27
2018-12-21T13:33:02.502Z,37.17
2018-12-21T13:35:30.365Z,27.37
2018-12-21T13:37:58.152Z,29.67
2018-12-21T13:40:26.096Z,35.90
2018-12-21T13:42:55.065Z,30.70
2018-12-21T13:45:24.131Z,39.33
2018-12-21T13:47:52.069Z,33.60
2018-12-21T13:50:20.005Z,26.40
2018-12-21T13:52:48.712Z,39.73
2018-12-21T13:55:20.539Z,36.17
2018-12-21T13:57:48.531Z,35.87
2018-12-21T14:00:18.128Z,34.87
2018-12-21T14:02:46.312Z,25.97
2018-12-21T14:05:14.009Z,38.87
2018-12-21T14:07:42.331Z,33.23
2018-12-21T14:10:12.235Z,30.67
2018-12-21T14:12:41.028Z,34.53
2018-12-21T14:15:08.720Z,38.13
2018-12-21T14:17:36.393Z,34.40
2018-12-21T14:20:08.673Z,30.93
2018-12-21T14:22:37.189Z,36.87
2018-12-21T14:25:06.429Z,31.80
2018-12-21T14:27:34.172Z,30.77
2018-12-21T14:30:02.947Z,28.97
2018-12-21T14:32:30.801Z,33.10
2018-12-21T14:34:58.622Z,31.83
2018-12-21T14:37:26.350Z,32.97
2018-12-21T14:39:55.149Z,41.57
2018-12-21T14:42:23.995Z,47.67
2018-12-21T14:44:56.789Z,36.60
2018-12-21T14:47:25.094Z,33.90
2018-12-21T14:49:55.316Z,31.07
2018-12-21T14:52:24.059Z,37.83
2018-12-21T14:54:51.757Z,37.70
2018-12-21T14:57:19.726Z,32.10
2018-12-21T14:59:47.522Z,34.10
2018-12-21T15:02:17.421Z,35.40
2018-12-21T15:04:45.399Z,32.07
2018-12-21T15:07:13.081Z,33.87
2018-12-21T15:09:40.790Z,31.37
2018-12-21T15:12:08.459Z,26.67
2018-12-21T15:14:37.378Z,31.33
2018-12-21T15:17:04.994Z,35.30
2018-12-21T15:19:34.325Z,36.40
2018-12-21T15:22:02.706Z,38.97
2018-12-21T15:24:31.221Z,35.50
2018-12-21T15:27:01.100Z,27.20
2018-12-21T15:29:29.968Z,37.90
2018-12-21T15:31:58.811Z,43.57
2018-12-21T15:34:27.116Z,40.03
2018-12-21T15:36:56.360Z,33.50
2018-12-21T15:39:27.727Z,35.80
2018-12-21T15:41:56.284Z,31.00
2018-12-21T15:44:23.948Z,37.53
2018-12-21T15:46:51.715Z,44.50
2018-12-21T15:49:19.530Z,40.27
2018-12-21T15:51:48.120Z,34.43
2018-12-21T15:54:17.519Z,31.63
2018-12-21T15:56:46.505Z,36.87
2018-12-21T15:59:14.600Z,32.33
2018-12-21T16:01:42.478Z,41.13
2018-12-21T16:04:10.818Z,33.20
2018-12-21T16:06:38.647Z,33.70
2018-12-21T16:09:07.725Z,26.67
2018-12-21T16:11:35.404Z,33.83
2018-12-21T16:14:06.191Z,38.63
2018-12-21T16:16:33.889Z,36.50
2018-12-21T16:19:02.629Z,37.67
2018-12-21T16:21:30.337Z,58.20
2018-12-21T16:24:06.768Z,28.47
2018-12-21T16:26:29.322Z,26.90
2018-12-21T16:28:57.103Z,27.80
2018-12-21T16:31:24.833Z,31.77
2018-12-21T16:33:52.696Z,35.00
2018-12-21T16:36:21.721Z,27.67
2018-12-21T16:38:49.365Z,34.90
2018-12-21T16:41:18.449Z,41.43
2018-12-21T16:43:46.189Z,32.90
2018-12-21T16:46:14.955Z,35.00
2018-12-21T16:48:42.720Z,24.07
2018-12-21T16:51:11.277Z,30.37
2018-12-21T16:53:38.968Z,28.87
2018-12-21T16:56:12.390Z,29.80
2018-12-21T16:58:36.395Z,48.20
2018-12-21T17:01:04.914Z,40.10
2018-12-21T17:03:32.696Z,40.20
2018-12-21T17:06:00.417Z,41.03
2018-12-21T17:08:28.069Z,33.90
2018-12-21T17:10:55.762Z,35.50
2018-12-21T17:13:23.457Z,36.57
2018-12-21T17:15:51.132Z,34.87
2018-12-21T17:18:18.937Z,28.13
2018-12-21T17:20:46.970Z,36.43
2018-12-21T17:23:14.602Z,35.83
2018-12-21T17:25:42.245Z,36.20
2018-12-21T17:28:09.973Z,45.40
2018-12-21T17:30:38.553Z,57.13
2018-12-21T17:33:06.294Z,44.90
2018-12-21T17:35:33.983Z,28.93
2018-12-21T17:38:01.755Z,39.40
2018-12-21T17:40:29.686Z,36.90
2018-12-21T17:42:57.793Z,44.40
2018-12-21T17:45:25.510Z,42.03
2018-12-21T17:47:53.888Z,36.13
2018-12-21T17:50:21.969Z,33.87
2018-12-21T17:52:50.504Z,40.80
2018-12-21T17:55:18.215Z,39.70
2018-12-21T17:57:45.845Z,40.43
2018-12-21T18:00:15.023Z,32.77
2018-12-21T18:02:44.301Z,32.00
2018-12-21T18:05:12.035Z,30.23
2018-12-21T18:07:39.751Z,29.80
2018-12-21T18:10:10.303Z,32.60
2018-12-21T18:12:38.170Z,33.53
2018-12-21T18:15:09.346Z,39.33
2018-12-21T18:17:37.081Z,40.10
2018-12-21T18:20:09.571Z,28.80
2018-12-21T18:22:38.301Z,27.07
2018-12-21T18:25:11.891Z,24.87
2018-12-21T18:27:39.640Z,22.20
2018-12-21T18:30:16.610Z,24.53
2018-12-21T18:32:44.287Z,28.80
2018-12-21T18:35:13.648Z,23.83
2018-12-21T18:37:44.953Z,20.80
2018-12-21T18:40:13.585Z,31.30
2018-12-21T18:42:41.442Z,25.57
2018-12-21T18:45:09.664Z,28.00
2018-12-21T18:47:37.459Z,33.10
2018-12-21T18:50:09.119Z,38.13
2018-12-21T18:52:36.835Z,33.60
2018-12-21T18:55:08.704Z,35.90
2018-12-21T18:57:36.539Z,34.80
2018-12-21T19:00:12.408Z,30.93
2018-12-21T19:02:40.499Z,30.57
2018-12-21T19:05:09.497Z,21.17
2018-12-21T19:07:38.004Z,22.77
2018-12-21T19:10:07.200Z,18.10
2018-12-21T19:12:34.902Z,18.67
2018-12-21T19:15:02.838Z,23.57
2018-12-21T19:17:30.685Z,20.37
2018-12-21T19:19:58.761Z,19.60
2018-12-21T19:22:27.321Z,23.13
2018-12-21T19:24:57.077Z,18.50
2018-12-21T19:27:26.203Z,24.27
2018-12-21T19:29:53.779Z,21.03
2018-12-21T19:32:21.488Z,17.47
2018-12-21T19:34:49.223Z,17.30
2018-12-21T19:37:16.930Z,13.23
2018-12-21T19:39:44.686Z,24.93
2018-12-21T19:42:12.318Z,20.97
2018-12-21T19:44:40.274Z,13.77
2018-12-21T19:47:08.053Z,12.90
2018-12-21T19:49:36.127Z,13.17
2018-12-21T19:52:03.919Z,13.97
2018-12-21T19:54:32.541Z,16.67
2018-12-21T19:57:04.607Z,21.57
2018-12-21T19:59:35.252Z,19.00
2018-12-21T20:02:02.955Z,13.47
2018-12-21T20:04:31.630Z,17.10
2018-12-21T20:06:59.329Z,20.73
2018-12-21T20:09:27.054Z,20.50
2018-12-21T20:11:55.597Z,17.63
2018-12-21T20:14:25.826Z,21.03
2018-12-21T20:16:53.498Z,19.87
2018-12-21T20:19:21.102Z,17.50
2018-12-21T20:21:48.756Z,17.37
2018-12-21T20:24:17.815Z,17.13
2018-12-21T20:26:45.826Z,16.50
2018-12-21T20:29:13.657Z,18.87
2018-12-21T20:31:41.316Z,16.50
2018-12-21T20:34:09.028Z,17.00
2018-12-21T20:36:36.689Z,16.30
2018-12-21T20:39:08.077Z,14.80
2018-12-21T20:41:36.397Z,16.43
2018-12-21T20:44:04.636Z,18.30
2018-12-21T20:46:33.395Z,13.67
2018-12-21T20:49:01.043Z,12.57
2018-12-21T20:51:30.706Z,14.07
2018-12-21T20:53:58.464Z,16.80
2018-12-21T20:56:27.057Z,15.50
2018-12-21T20:58:56.399Z,13.60
2018-12-21T21:01:24.459Z,17.00
2018-12-21T21:03:52.185Z,15.23
2018-12-21T21:06:19.933Z,10.77
2018-12-21T21:08:47.765Z,17.67
2018-12-21T21:11:24.001Z,25.50
2018-12-21T21:13:45.654Z,24.47
2018-12-21T21:16:14.321Z,32.93
2018-12-21T21:18:43.328Z,23.13
2018-12-21T21:21:13.004Z,29.40
2018-12-21T21:23:41.153Z,25.47
2018-12-21T21:26:08.905Z,25.07
2018-12-21T21:28:37.510Z,24.00
2018-12-21T21:31:05.118Z,17.30
2018-12-21T21:33:33.060Z,31.37
2018-12-21T21:36:00.826Z,23.23
2018-12-21T21:38:28.787Z,18.50
2018-12-21T21:40:57.274Z,19.57
2018-12-21T21:43:24.978Z,21.07
2018-12-21T21:45:53.860Z,17.43
2018-12-21T21:48:21.631Z,17.80
2018-12-21T21:50:49.358Z,22.00
2018-12-21T21:53:17.099Z,20.70
2018-12-21T21:55:44.711Z,18.33
2018-12-21T21:58:12.457Z,13.10
2018-12-21T22:00:40.317Z,11.60
2018-12-21T22:03:08.069Z,8.57
2018-12-21T22:05:35.682Z,9.50
2018-12-21T22:08:03.375Z,10.07
2018-12-21T22:10:30.998Z,16.03
2018-12-21T22:12:58.640Z,13.53
2018-12-21T22:15:26.256Z,9.87
2018-12-21T22:17:53.893Z,6.53
2018-12-21T22:20:21.500Z,5.37
2018-12-21T22:22:49.180Z,7.30
2018-12-21T22:25:16.754Z,5.90
2018-12-21T22:27:48.131Z,9.03
2018-12-21T22:30:14.209Z,9.70
2018-12-21T22:32:42.061Z,8.63
2018-12-21T22:35:09.714Z,8.47
2018-12-21T22:37:37.507Z,15.37
2018-12-21T22:40:05.375Z,10.90
2018-12-21T22:42:33.287Z,9.13
2018-12-21T22:45:00.925Z,6.03
2018-12-21T22:47:28.662Z,5.30
2018-12-21T22:49:56.321Z,4.60
2018-12-21T22:52:23.930Z,5.57
2018-12-21T22:54:51.557Z,8.10
2018-12-21T22:57:19.185Z,5.40
2018-12-21T22:59:46.882Z,5.30
2018-12-21T23:02:14.704Z,5.70
2018-12-21T23:04:42.284Z,10.03
2018-12-21T23:07:09.965Z,8.13
2018-12-21T23:09:37.525Z,6.70
2018-12-21T23:12:05.159Z,8.27
2018-12-21T23:14:32.814Z,7.23
2018-12-21T23:17:00.403Z,4.37
2018-12-21T23:19:28.142Z,3.33
2018-12-21T23:21:55.716Z,2.23
2018-12-21T23:24:23.437Z,2.07
2018-12-21T23:26:51.011Z,2.80
2018-12-21T23:29:18.709Z,1.80
2018-12-21T23:31:46.455Z,2.90
2018-12-21T23:34:14.115Z,5.17
2018-12-21T23:36:41.763Z,6.13
2018-12-21T23:39:09.353Z,2.70
2018-12-21T23:41:37.007Z,3.80
2018-12-21T23:44:04.667Z,1.77
2018-12-21T23:46:32.302Z,2.30
2018-12-21T23:49:00.010Z,3.90
2018-12-21T23:51:27.781Z,2.17
2018-12-21T23:53:55.424Z,5.30
2018-12-21T23:56:23.207Z,2.60
2018-12-21T23:58:51.068Z,3.50
